world map with MUCC marked

MUCC - Airport

This information may not be accurate or current and is not valid for navigation or flight planning. No warranty of fitness for any purpose is made or implied.

flag of Cuba

Donate via PayPal

Additional information is available on the NEW Great Circle Mapper

Location
City:  Cayo Coco, Ciego de Ávila, Cuba
Name:Jardines del Rey International Airport
ICAO / IATA:MUCC / CCC

Details
Type:Airport (Aerodrome, Airfield)
Use:Public/Civil
Latitude:22°27'40"N (22.461111)
Longitude:78°19'43"W (-78.328610)
Elevation:13 ft (4 m)
Runways:1
Longest:9843 × 148 ft (3000 × 45 m)

Time
Timezone:UTC+29:08 (DST+32:08)
Local Time:

Weather
METAR:MUCC  190150Z 07001KT 9000 BKN018 20/18 Q1018
TAF:MUCC  (expired)

Related Locations
Nearby:
Farthest:CVQ: 11668 mi / 18778 km
Carnarvon, WA, AU

Find:

   beyond  
but within

Other Information
Maps:
Links:
Sources:

  

Airport Diagram

Airport diagram for MUCC

Airport diagram PDF

 


Great Circle Mapper   Great Circle Mapper
Great Circle Mapper FAQ   Great Circle Mapper FAQ
  Karl's Home Page
KLS˛   KLS˛ Home
   GC on Facebook
Airlines of the World   Airlines of the World
Donate via PayPal


Copyright © 2004-2018, Karl L. Swartz. All rights reserved.
All trademarks mentioned herein belong to their respective owners.

Please see credits for attribution and copyright information.

Karl Swartz <karl@kls2.com>
  Powered by FreeBSD
Valid HTML 4.01!
Labeled with ICRA
hCard Microformat
Geo Microformat